• Join FlightAware (Why Join?)
  • Login
  • US Flag 
03:12PM EDT


 

Airport Tracker/Info


-or-


 

Live Flight TrackerFlight Track Log ✈ UAL6025 ✈ 21-Apr-2013 ✈ KIAD - KTUL

Flight Track Log - Related Links

Times and Time Zones

All times are in EDT time to prevent confusion due to time zone crossing. See the UAL6025 flight status page for this flight to view local times or setup timezone preferences in your user account.

Time Position Orientation Groundspeed Altitude Reporting Facility
EDT Latitude Longitude Course Direction KTS MPH feet Rate Location/Type
05:54PM 38.9500 -77.5500 288° West 219 252 2,200  Level Potomac TRACON
05:54PM 38.9233 -77.6275 246° West 242 278 3,800 2,400 Climbing Washington Center
05:55PM 38.9033 -77.6908 248° West 269 310 6,200 2,520 Climbing Washington Center
05:56PM 38.8581 -77.7831 238° Southwest 274 315 8,900 2,160 Climbing Washington Center
05:57PM 38.8086 -77.8642 232° Southwest 286 329 10,600 1,500 Climbing Washington Center
05:58PM 38.7961 -77.9728 262° West 297 342 11,900 1,440 Climbing Washington Center
05:59PM 38.8362 -78.1448 288° West  Level FlightAware Approximate
05:59PM 38.8247 -78.0936 287° West 307 353 13,500  Level Washington Center
06:00PM 38.8536 -78.2119 287° West 334 384 15,200 1,680 Climbing Washington Center
06:01PM 38.8528 -78.3425 270° West 355 409 16,900 1,440 Climbing Washington Center
06:02PM 38.8519 -78.4678 270° West 360 414 18,100 1,440 Climbing Washington Center
06:03PM 38.8508 -78.5931 269° West 360 414 19,800 1,680 Climbing Washington Center
06:04PM 38.8500 -78.7156 270° West 360 414 21,500 1,680 Climbing Washington Center
06:05PM 38.8489 -78.8383 269° West 354 407 23,200 1,620 Climbing Washington Center
06:06PM 38.8456 -78.9553 268° West 343 395 24,800 1,500 Climbing Washington Center
06:07PM 38.8442 -79.0725 269° West 343 395 26,300 1,500 Climbing Washington Center
06:08PM 38.8431 -79.1872 269° West 337 388 27,800 1,440 Climbing Washington Center
06:09PM 38.8250 -79.2983 258° West 332 382 29,200 1,440 Climbing Washington Center
06:10PM 38.8050 -79.4064 257° West 326 375 30,700 1,320 Climbing Washington Center
06:11PM 38.7850 -79.5119 256° West 316 364 31,900 1,020 Climbing Washington Center
06:12PM 38.7669 -79.6122 257° West 316 364 32,800 780 Climbing Washington Center
06:13PM 38.7486 -79.7256 258° West 321 369 33,500 840 Climbing Washington Center
06:14PM 38.7258 -79.8361 255° West 321 369 34,500 720 Climbing Washington Center
06:15PM 38.7050 -79.9575 258° West 321 369 35,000 240 Climbing Washington Center
06:16PM 38.6817 -80.0756 256° West 328 377 35,000  Level Washington Center
06:17PM 38.6583 -80.1967 256° West 348 400 35,000 300 Level Washington Center
06:18PM 38.6425 -80.2772 256° West 365 420 35,500 540 Climbing Indianapolis Center
06:19PM 38.6175 -80.4031 256° West 366 421 36,000 240 Climbing Indianapolis Center
06:20PM 38.5947 -80.5292 257° West 364 419 36,000  Level Indianapolis Center
06:21PM 38.5692 -80.6603 256° West 377 434 36,000  Level Indianapolis Center
06:22PM 38.5444 -80.7903 256° West 377 434 36,000  Level Indianapolis Center
06:23PM 38.5183 -80.9219 256° West 379 436 36,000  Level Indianapolis Center
06:24PM 38.4931 -81.0536 256° West 380 437 36,000  Level Indianapolis Center
06:25PM 38.4614 -81.2128 256° West 384 442 36,000  Level Indianapolis Center
06:26PM 38.4344 -81.3456 256° West 383 441 36,000  Level Indianapolis Center
06:27PM 38.4089 -81.4797 256° West 385 443 36,000  Level Indianapolis Center
06:28PM 38.3817 -81.6136 255° West 386 444 36,000  Level Indianapolis Center
06:29PM 38.3542 -81.7472 255° West 386 444 36,000  Level Indianapolis Center
06:30PM 38.3450 -81.8867 265° West 392 451 36,000  Level Indianapolis Center
06:31PM 38.3389 -82.0281 267° West 398 458 36,000  Level Indianapolis Center
06:33PM 38.3336 -82.1700 267° West 400 460 36,000  Level Indianapolis Center
06:34PM 38.3236 -82.3389 266° West 398 458 36,000  Level Indianapolis Center
06:35PM 38.3164 -82.4806 266° West 399 459 36,000  Level Indianapolis Center
06:36PM 38.3083 -82.6164 266° West 400 460 36,000  Level Indianapolis Center
06:37PM 38.3006 -82.7578 266° West 400 460 36,000  Level Indianapolis Center
06:38PM 38.2903 -82.9242 266° West 403 464 36,000  Level Indianapolis Center
06:39PM 38.2814 -83.0658 265° West 403 464 36,000  Level Indianapolis Center
06:40PM 38.2731 -83.2089 266° West 405 466 36,000  Level Indianapolis Center
06:41PM 38.2644 -83.3508 266° West 403 464 36,000  Level Indianapolis Center
06:42PM 38.2544 -83.4939 265° West 405 466 36,000  Level Indianapolis Center
06:43PM 38.2431 -83.6628 265° West 409 471 36,000  Level Indianapolis Center
06:44PM 38.2342 -83.8050 265° West 407 468 36,000  Level Indianapolis Center
06:45PM 38.2244 -83.9492 265° West 408 470 36,000  Level Indianapolis Center
06:46PM 38.2144 -84.0917 265° West 407 468 36,000  Level Indianapolis Center
06:47PM 38.2044 -84.2353 265° West 409 471 36,000  Level Indianapolis Center
06:48PM 38.1936 -84.3781 265° West 407 468 36,000  Level Indianapolis Center
06:49PM 38.1814 -84.5469 265° West 409 471 36,000  Level Indianapolis Center
06:50PM 38.1694 -84.6917 264° West 412 474 36,000  Level Indianapolis Center
06:51PM 38.1594 -84.8353 265° West 409 471 36,000  Level Indianapolis Center
06:52PM 38.1497 -84.9772 265° West 405 466 36,000  Level Indianapolis Center
06:53PM 38.1381 -85.1203 264° West 407 468 36,000  Level Indianapolis Center
06:54PM 38.1267 -85.2781 265° West 407 468 36,000  Level Indianapolis Center
06:55PM 38.1144 -85.4222 264° West 409 471 36,000  Level Indianapolis Center
06:56PM 38.1044 -85.5658 265° West 408 470 36,000  Level Indianapolis Center
06:57PM 38.0925 -85.7086 264° West 407 468 36,000  Level Indianapolis Center
06:58PM 38.0836 -85.8522 266° West 407 468 36,000  Level Indianapolis Center
06:59PM 38.0714 -86.0258 265° West 410 472 36,000  Level Indianapolis Center
07:00PM 38.0600 -86.1700 264° West 409 471 36,000  Level Indianapolis Center
07:01PM 38.0483 -86.3175 264° West 417 480 36,000  Level Indianapolis Center
07:03PM 38.0364 -86.4672 264° West 416 479 36,000  Level Indianapolis Center
07:04PM 38.0258 -86.6114 265° West 417 480 36,000  Level Indianapolis Center
07:05PM 38.0139 -86.7583 264° West 417 480 36,000  Level Indianapolis Center
07:06PM 38.0011 -86.9050 264° West 414 476 36,000  Level Indianapolis Center
07:07PM 37.9892 -87.0531 264° West 415 478 36,000  Level Indianapolis Center
07:08PM 37.9761 -87.2022 264° West 418 481 36,000  Level Indianapolis Center
07:09PM 37.9644 -87.3511 264° West 420 483 36,000  Level Indianapolis Center
07:10PM 37.9492 -87.5294 264° West 421 484 36,000  Level Indianapolis Center
07:11PM 37.9353 -87.6786 263° West 423 487 36,000  Level Indianapolis Center
07:12PM 37.9211 -87.8292 263° West 426 490 36,000  Level Indianapolis Center
07:13PM 37.9072 -87.9772 263° West 423 487 36,000  Level Indianapolis Center
07:13PM 37.9053 -88.0067 265° West 423 487 36,000  Level Kansas City Center
07:14PM 37.8908 -88.1531 263° West 419 482 36,000  Level Kansas City Center
07:15PM 37.8739 -88.3281 263° West 416 479 36,000  Level Kansas City Center
07:16PM 37.8603 -88.4733 263° West 414 476 36,000  Level Kansas City Center
07:17PM 37.8458 -88.6172 263° West 413 475 36,000  Level Kansas City Center
07:18PM 37.8317 -88.7719 263° West 412 474 36,000  Level Kansas City Center
07:19PM 37.8164 -88.9142 262° West 410 472 36,000  Level Kansas City Center
07:20PM 37.8000 -89.0550 262° West 408 470 36,000  Level Kansas City Center
07:21PM 37.7853 -89.1983 263° West 409 471 36,000  Level Kansas City Center
07:22PM 37.7708 -89.3442 263° West 413 475 36,000  Level Kansas City Center
07:23PM 37.7547 -89.4889 262° West 413 475 36,000  Level Kansas City Center
07:24PM 37.7397 -89.6328 263° West 412 474 36,000  Level Kansas City Center
07:26PM 37.7214 -89.8036 262° West 410 472 36,000  Level Kansas City Center
07:27PM 37.7053 -89.9469 262° West 411 473 36,000  Level Kansas City Center
07:28PM 37.6894 -90.0894 262° West 410 472 36,000  Level Kansas City Center
07:29PM 37.6739 -90.2278 262° West 412 474 36,000  Level Kansas City Center
07:30PM 37.6608 -90.3736 264° West 409 471 36,000  Level Kansas City Center
07:31PM 37.6419 -90.5178 261° West 411 473 36,000  Level Kansas City Center
07:32PM 37.6086 -90.6861 256° West 414 476 36,000  Level Kansas City Center
07:33PM 37.5814 -90.8236 256° West 411 473 36,000  Level Kansas City Center
07:34PM 37.5550 -90.9644 257° West 410 472 36,000  Level Kansas City Center
07:35PM 37.5289 -91.1044 257° West 410 472 36,000  Level Kansas City Center
07:36PM 37.5011 -91.2442 256° West 410 472 36,000  Level Kansas City Center
07:37PM 37.4761 -91.3825 257° West 408 470 36,000  Level Kansas City Center
07:38PM 37.4481 -91.5225 256° West 408 470 36,000  Level Kansas City Center
07:39PM 37.4161 -91.6881 256° West 407 468 36,000  Level Kansas City Center
07:40PM 37.3889 -91.8244 256° West 401 461 36,000  Level Kansas City Center
07:41PM 37.3631 -91.9597 257° West 398 458 36,000  Level Kansas City Center
07:42PM 37.3353 -92.0953 256° West 398 458 36,000  Level Kansas City Center
07:43PM 37.3094 -92.2311 257° West 397 457 36,000  Level Kansas City Center
07:44PM 37.2814 -92.3653 255° West 396 456 36,000  Level Kansas City Center
07:45PM 37.2544 -92.5006 256° West 396 456 36,000  Level Kansas City Center
07:46PM 37.2278 -92.6347 256° West 394 453 36,000  Level Kansas City Center
07:47PM 37.1950 -92.7958 256° West 396 456 36,000  Level Kansas City Center
07:48PM 37.1664 -92.9294 255° West 395 455 36,000  Level Kansas City Center
07:49PM 37.1375 -93.0636 255° West 396 456 36,000  Level Kansas City Center
07:50PM 37.1094 -93.1967 255° West 395 455 36,000  Level Kansas City Center
07:51PM 37.0811 -93.3289 255° West 394 453 36,000  Level Kansas City Center
07:52PM 37.0533 -93.4633 256° West 396 456 36,000  Level Kansas City Center
07:53PM 37.0278 -93.5983 257° West 397 457 36,000  Level Kansas City Center
07:55PM 36.9925 -93.7558 254° West 392 451 36,000  Level Kansas City Center
07:56PM 36.9689 -93.8669 255° West 390 449 36,000 -300 Level Kansas City Center
07:57PM 36.9344 -94.0239 255° West 390 449 35,500 -1,260 Descending Kansas City Center
07:58PM 36.9058 -94.1528 255° West 387 445 33,500 -2,160 Descending Kansas City Center
07:59PM 36.8761 -94.2886 255° West 399 459 31,000 -2,520 Descending Kansas City Center
08:00PM 36.8444 -94.4281 254° West 415 478 28,400 -2,520 Descending Kansas City Center
08:01PM 36.8131 -94.5675 254° West 416 479 25,900 -2,520 Descending Kansas City Center
08:02PM 36.7811 -94.7089 254° West 421 484 23,300 -2,520 Descending Kansas City Center
08:03PM 36.7500 -94.8458 254° West 416 479 20,800 -2,640 Descending Kansas City Center
08:04PM 36.7156 -95.0033 255° West 399 459 17,800 -2,700 Descending Kansas City Center
08:04PM 36.7025 -95.0539 252° West 386 444 16,900 -2,340 Descending Kansas City Center
08:05PM 36.6936 -95.0917 254° West 379 436 16,200 -2,460 Descending Kansas City Center
08:05PM 36.6869 -95.1272 257° West 380 437 15,400 -2,580 Descending Kansas City Center
08:06PM 36.6647 -95.2131 252° West 362 417 13,600 -2,460 Descending Kansas City Center
08:06PM 36.6494 -95.2419 237° Southwest 368 423 12,900 -2,040 Descending Kansas City Center
08:07PM 36.5992 -95.3031 224° Southwest 343 395 11,600 -1,800 Descending Kansas City Center
08:07PM 36.5842 -95.3256 230° Southwest 342 394 11,100 -1,200 Descending Kansas City Center
08:08PM 36.5428 -95.3992 235° Southwest 287 330 10,300 -1,020 Descending Kansas City Center
08:08PM 36.5394 -95.4094 248° West 302 348 10,100 -1,260 Descending Kansas City Center
08:09PM 36.5039 -95.4800 238° Southwest 265 305 9,100 -1,500 Descending Kansas City Center
08:09PM 36.4939 -95.5036 242° Southwest 273 314 8,600 -1,500 Descending Kansas City Center
08:10PM 36.4647 -95.5606 238° Southwest 276 318 7,600 -1,500 Descending Kansas City Center
08:10PM 36.4550 -95.5814 240° Southwest 270 311 7,100 -1,560 Descending Kansas City Center
08:11PM 36.4256 -95.6386 237° Southwest 268 308 6,000 -1,380 Descending Kansas City Center
08:11PM 36.4164 -95.6589 241° Southwest 268 308 5,700 -1,020 Descending Kansas City Center
08:12PM 36.3881 -95.7161 238° Southwest 262 302 5,000 -1,020 Descending Kansas City Center
08:12PM 36.3792 -95.7356 240° Southwest 264 304 4,700 -1,200 Descending Kansas City Center
08:13PM 36.3486 -95.7914 236° Southwest 244 281 3,800 -1,080 Descending Kansas City Center
08:13PM 36.3419 -95.8058 240° Southwest 255 293 3,600 -720 Descending Kansas City Center
08:14PM 36.3075 -95.8514 227° Southwest 221 254 3,100 -600 Descending Kansas City Center
08:14PM 36.3008 -95.8631 235° Southwest 237 273 3,000 -780 Descending Kansas City Center
08:15PM 36.2708 -95.8897 216° Southwest 151 174 2,300 -1,200 Descending Kansas City Center
08:15PM 36.2569 -95.8950 197° South 179 206 1,800 -1,020 Descending Kansas City Center
08:16PM 36.2358 -95.8969 184° South 114 131 1,300 -840 Descending Kansas City Center
08:16PM 36.2225 -95.8981 184° South 145 167 1,000 -360 Descending Kansas City Center
08:17PM 36.1903 -95.9006 184° South 138 159 800 -240 Descending Kansas City Center
08:19PM 36.1833 -95.8833 180° South  Level FlightAware Approximate
08:26PM 36.1984 -95.8881 180° South  Level Estimated